Riverton, Louisiana
Current Conditions -  °F | °C
As of 5:53 PM on Wednesday 22 Oct 2014 (Local Time) from KMLU Reporting Station
Clear Clear  
Wind Chill: 71°   Ceiling: Unl
Heat Index: 71°   Visibility: 10mi
Dew Point: 51°   Wind: 7mph
Humidity: 49%   Direction: 40°NE
Pressure: 30.11"   Gusts: NA
Location:  32.1631°N, 92.1971°W
Report Text: KMLU 222253Z 04006KT 10SM CLR 22/11 A3011 RMK AO2 SLP194 T02170106
Loading
Personal Weather Stations






























Interactive Weather Map
Tropical Storm Tracking
New forecast layout! Learn more

10-Day Weather Forecast

Advertisements
Track Severe Weather on mobile